createdAt,value
2022-08-02T00:00:45.175Z,76.30
2022-08-02T00:03:13.604Z,76.30
2022-08-02T00:05:41.958Z,76.40
2022-08-02T00:08:22.831Z,76.10
2022-08-02T00:10:51.454Z,76.10
2022-08-02T00:13:19.872Z,76.10
2022-08-02T00:15:48.330Z,76.00
2022-08-02T00:18:16.741Z,76.00
2022-08-02T00:20:45.187Z,76.50
2022-08-02T00:23:13.633Z,76.90
2022-08-02T00:25:55.503Z,77.20
2022-08-02T00:28:27.661Z,77.50
2022-08-02T00:30:56.945Z,77.60
2022-08-02T00:34:26.440Z,77.60
2022-08-02T00:36:13.906Z,77.50
2022-08-02T00:38:42.436Z,77.30
2022-08-02T00:41:17.778Z,77.50
2022-08-02T00:43:47.025Z,77.60
2022-08-02T00:46:15.941Z,78.00
2022-08-02T00:48:44.550Z,77.80
2022-08-02T00:51:13.826Z,77.90
2022-08-02T00:53:42.461Z,78.00
2022-08-02T00:56:11.110Z,77.60
2022-08-02T00:58:41.017Z,77.60
2022-08-02T01:01:09.531Z,77.50
2022-08-02T01:03:37.957Z,77.60
2022-08-02T01:06:13.613Z,77.70
2022-08-02T01:08:42.079Z,77.80
2022-08-02T01:11:12.377Z,77.80
2022-08-02T01:13:42.242Z,77.80
2022-08-02T01:16:17.261Z,77.90
2022-08-02T01:18:50.524Z,78.00
2022-08-02T01:21:40.150Z,78.40
2022-08-02T01:24:37.302Z,78.40
2022-08-02T01:27:22.186Z,78.10
2022-08-02T01:29:58.215Z,77.80
2022-08-02T01:32:33.114Z,77.80
2022-08-02T01:35:05.151Z,77.80
2022-08-02T01:37:41.217Z,77.80
2022-08-02T01:40:13.381Z,77.60
2022-08-02T01:42:44.884Z,77.70
2022-08-02T01:45:17.442Z,77.60
2022-08-02T01:47:48.102Z,77.30
2022-08-02T01:50:19.810Z,77.60
2022-08-02T01:52:53.556Z,77.70
2022-08-02T01:55:28.224Z,77.60
2022-08-02T01:58:06.448Z,78.00
2022-08-02T02:00:40.397Z,78.00
2022-08-02T02:03:13.861Z,78.30
2022-08-02T02:05:44.114Z,78.30
2022-08-02T02:08:13.470Z,78.50
2022-08-02T02:10:57.514Z,78.70
2022-08-02T02:13:48.824Z,78.90
2022-08-02T02:16:20.717Z,78.60
2022-08-02T02:18:51.694Z,78.30
2022-08-02T02:21:21.553Z,78.20
2022-08-02T02:23:50.949Z,78.30
2022-08-02T02:26:31.051Z,78.40
2022-08-02T02:29:03.107Z,78.80
2022-08-02T02:31:37.669Z,79.10
2022-08-02T02:34:10.507Z,79.20
2022-08-02T02:36:41.649Z,79.00
2022-08-02T02:39:13.803Z,78.60
2022-08-02T02:41:44.266Z,78.40
2022-08-02T02:44:17.766Z,78.50
2022-08-02T02:46:50.695Z,78.50
2022-08-02T02:49:20.539Z,78.60
2022-08-02T02:51:50.333Z,78.60
2022-08-02T02:54:32.083Z,78.30
2022-08-02T02:57:04.424Z,78.20
2022-08-02T02:59:34.198Z,78.10
2022-08-02T03:02:06.083Z,77.90
2022-08-02T03:04:56.083Z,78.80
2022-08-02T03:07:24.787Z,77.90
2022-08-02T03:09:54.442Z,77.90
2022-08-02T03:12:30.798Z,77.90
2022-08-02T03:15:00.466Z,78.20
2022-08-02T03:17:41.311Z,77.90
2022-08-02T03:20:12.633Z,77.80
2022-08-02T03:22:41.189Z,78.20
2022-08-02T03:25:11.260Z,78.50
2022-08-02T03:27:39.911Z,78.60
2022-08-02T03:30:10.613Z,78.70
2022-08-02T03:32:44.078Z,78.60
2022-08-02T03:35:19.890Z,78.60
2022-08-02T03:37:53.881Z,78.50
2022-08-02T03:40:22.852Z,78.40
2022-08-02T03:42:51.749Z,78.40
2022-08-02T03:45:21.114Z,78.40
2022-08-02T03:47:51.724Z,78.50
2022-08-02T03:50:23.001Z,78.50
2022-08-02T03:52:52.364Z,78.20
2022-08-02T03:55:20.916Z,78.90
2022-08-02T03:57:49.924Z,78.00
2022-08-02T04:00:21.889Z,78.10
2022-08-02T04:02:51.757Z,78.30
2022-08-02T04:05:20.696Z,78.50
2022-08-02T04:08:02.744Z,78.70
2022-08-02T04:10:52.130Z,78.90
2022-08-02T04:13:26.419Z,78.80
2022-08-02T04:16:01.213Z,78.90
2022-08-02T04:18:37.257Z,79.20
2022-08-02T04:21:07.461Z,79.10
2022-08-02T04:23:38.393Z,79.20
2022-08-02T04:26:08.589Z,79.20
2022-08-02T04:28:37.908Z,79.20
2022-08-02T04:31:07.444Z,79.20
2022-08-02T04:33:38.626Z,79.20
2022-08-02T04:36:08.343Z,79.10
2022-08-02T04:38:36.810Z,79.00
2022-08-02T04:41:05.307Z,79.00
2022-08-02T04:43:33.718Z,78.60
2022-08-02T04:46:03.412Z,78.50
2022-08-02T04:48:31.927Z,78.50
2022-08-02T04:51:01.727Z,78.60
2022-08-02T04:53:30.102Z,78.90
2022-08-02T04:55:58.565Z,79.00
2022-08-02T04:58:42.266Z,79.00
2022-08-02T05:01:10.819Z,78.80
2022-08-02T05:03:39.434Z,79.10
2022-08-02T05:06:18.812Z,79.30
2022-08-02T05:08:52.848Z,79.40
2022-08-02T05:11:34.682Z,79.90
2022-08-02T05:14:05.846Z,80.10
2022-08-02T05:16:34.453Z,80.40
2022-08-02T05:19:03.310Z,80.40
2022-08-02T05:21:33.296Z,80.50
2022-08-02T05:24:01.733Z,81.00
2022-08-02T05:26:30.273Z,81.50
2022-08-02T05:28:58.709Z,81.90
2022-08-02T05:31:27.112Z,81.90
2022-08-02T05:33:55.506Z,82.40
2022-08-02T05:36:23.947Z,81.90
2022-08-02T05:38:59.707Z,82.20
2022-08-02T05:41:33.570Z,82.60
2022-08-02T05:44:02.026Z,82.90
2022-08-02T05:46:30.529Z,83.20
2022-08-02T05:48:59.092Z,83.60
2022-08-02T05:51:32.616Z,84.10
2022-08-02T05:54:13.894Z,84.30
2022-08-02T05:56:48.104Z,84.70
2022-08-02T05:59:27.409Z,85.00
2022-08-02T06:02:30.513Z,85.10
2022-08-02T06:05:05.828Z,85.20
2022-08-02T06:07:37.406Z,84.90
2022-08-02T06:10:09.218Z,84.70
2022-08-02T06:12:43.213Z,84.60
2022-08-02T06:15:15.455Z,84.80
2022-08-02T06:17:45.828Z,85.10
2022-08-02T06:20:17.023Z,84.10
2022-08-02T06:22:46.505Z,84.50
2022-08-02T06:25:48.429Z,84.30
2022-08-02T06:28:11.560Z,83.80
2022-08-02T06:30:40.953Z,83.00
2022-08-02T06:33:09.370Z,83.00
2022-08-02T06:35:46.416Z,83.10
2022-08-02T06:38:20.767Z,83.40
2022-08-02T06:40:57.557Z,84.10
2022-08-02T06:43:34.510Z,84.40
2022-08-02T06:47:01.356Z,84.40
2022-08-02T06:48:52.535Z,84.30
2022-08-02T06:51:21.285Z,84.00
2022-08-02T06:53:50.533Z,84.20
2022-08-02T06:56:17.877Z,84.20
2022-08-02T06:58:47.762Z,84.10
2022-08-02T07:01:16.248Z,84.10
2022-08-02T07:03:44.755Z,84.60
2022-08-02T07:06:13.203Z,83.30
2022-08-02T07:08:45.431Z,84.40
2022-08-02T07:12:25.326Z,86.50
2022-08-02T07:14:55.364Z,87.70
2022-08-02T07:17:23.904Z,90.00
2022-08-02T07:19:52.326Z,91.20
2022-08-02T07:22:23.530Z,91.40
2022-08-02T07:24:52.470Z,91.60
2022-08-02T07:27:21.351Z,91.90
2022-08-02T07:29:50.005Z,91.90
2022-08-02T07:32:21.179Z,92.00
2022-08-02T07:35:36.288Z,92.10
2022-08-02T07:40:39.239Z,92.00
2022-08-02T07:43:08.453Z,92.00
2022-08-02T07:45:45.813Z,91.90
2022-08-02T07:48:26.945Z,91.80
2022-08-02T07:53:50.260Z,92.00
2022-08-02T07:56:20.165Z,92.10
2022-08-02T07:58:48.602Z,92.30
2022-08-02T08:01:17.285Z,92.30
2022-08-02T08:03:47.292Z,92.20
2022-08-02T08:06:16.361Z,92.30
2022-08-02T08:08:44.839Z,92.40
2022-08-02T08:11:13.336Z,92.40
2022-08-02T08:13:42.062Z,92.60
2022-08-02T08:16:10.800Z,92.60
2022-08-02T08:18:39.336Z,92.60
2022-08-02T08:21:10.168Z,92.30
2022-08-02T08:23:38.730Z,92.30
2022-08-02T08:26:07.211Z,92.30
2022-08-02T08:28:36.324Z,92.00
2022-08-02T08:31:04.871Z,91.80
2022-08-02T08:33:33.836Z,91.90
2022-08-02T08:36:02.517Z,91.80
2022-08-02T08:38:32.559Z,91.80
2022-08-02T08:41:01.272Z,91.70
2022-08-02T08:43:29.749Z,91.60
2022-08-02T08:45:59.413Z,91.70
2022-08-02T08:48:31.293Z,91.70
2022-08-02T08:51:05.867Z,91.70
2022-08-02T08:53:41.287Z,91.70
2022-08-02T08:56:14.075Z,91.70
2022-08-02T08:58:45.813Z,92.00
2022-08-02T09:01:15.242Z,92.00
2022-08-02T09:03:44.076Z,92.10
2022-08-02T09:06:12.526Z,92.40
2022-08-02T09:08:42.306Z,92.80
2022-08-02T09:11:15.887Z,92.90
2022-08-02T09:13:52.231Z,92.90
2022-08-02T09:16:31.382Z,92.90
2022-08-02T09:19:00.461Z,92.80
2022-08-02T09:21:37.834Z,92.70
2022-08-02T09:24:17.746Z,92.70
2022-08-02T09:26:47.490Z,92.80
2022-08-02T09:29:16.890Z,92.80
2022-08-02T09:31:49.618Z,92.80
2022-08-02T09:34:19.666Z,92.80
2022-08-02T09:36:54.395Z,92.70
2022-08-02T09:39:26.572Z,92.50
2022-08-02T09:42:08.584Z,92.30
2022-08-02T09:44:38.064Z,92.10
2022-08-02T09:47:16.681Z,92.20
2022-08-02T09:49:52.389Z,92.20
2022-08-02T09:52:42.845Z,92.10
2022-08-02T09:55:14.484Z,91.90
2022-08-02T09:57:43.718Z,91.80
2022-08-02T10:00:31.503Z,91.60
2022-08-02T10:03:14.873Z,91.50
2022-08-02T10:05:55.954Z,91.30
2022-08-02T10:08:32.727Z,91.30
2022-08-02T10:11:03.988Z,91.00
2022-08-02T10:13:35.592Z,90.90
2022-08-02T10:16:04.988Z,90.60
2022-08-02T10:18:39.413Z,90.40
2022-08-02T10:21:13.014Z,90.40
2022-08-02T10:23:43.858Z,90.40
2022-08-02T10:26:18.166Z,90.40
2022-08-02T10:28:50.561Z,90.60
2022-08-02T10:31:25.407Z,90.50
2022-08-02T10:33:55.498Z,90.30
2022-08-02T10:36:27.284Z,89.80
2022-08-02T10:38:58.802Z,89.10
2022-08-02T10:41:48.653Z,89.90
2022-08-02T10:44:28.870Z,90.00
2022-08-02T10:47:22.189Z,90.30
2022-08-02T10:49:52.015Z,90.30
2022-08-02T10:52:21.801Z,88.40
2022-08-02T10:54:56.489Z,87.40
2022-08-02T10:57:28.290Z,87.30
2022-08-02T10:59:59.284Z,87.30
2022-08-02T11:02:44.466Z,86.90
2022-08-02T11:05:18.024Z,86.30
2022-08-02T11:07:49.575Z,86.30
2022-08-02T11:10:39.495Z,85.50
2022-08-02T11:13:15.284Z,85.60
2022-08-02T11:15:55.467Z,86.10
2022-08-02T11:18:44.928Z,86.60
2022-08-02T11:21:24.286Z,86.60
2022-08-02T11:23:53.284Z,86.50
2022-08-02T11:26:46.587Z,86.40
2022-08-02T11:29:16.568Z,86.80
2022-08-02T11:31:46.624Z,87.70
2022-08-02T11:34:37.230Z,86.80
2022-08-02T11:37:03.614Z,85.80
2022-08-02T11:39:32.073Z,85.20
2022-08-02T11:42:01.751Z,84.50
2022-08-02T11:44:40.752Z,83.60
2022-08-02T11:47:09.461Z,83.60
2022-08-02T11:49:38.999Z,83.70
2022-08-02T11:52:11.457Z,83.50
2022-08-02T11:54:42.230Z,82.90
2022-08-02T11:57:20.558Z,82.90
2022-08-02T11:59:52.348Z,82.40
2022-08-02T12:02:22.288Z,81.60
2022-08-02T12:04:58.201Z,82.40
2022-08-02T12:07:34.529Z,78.90
2022-08-02T12:10:08.121Z,79.10
2022-08-02T12:12:49.160Z,79.70
2022-08-02T12:15:34.506Z,79.00
2022-08-02T12:18:20.833Z,78.60
2022-08-02T12:20:49.776Z,78.30
2022-08-02T12:23:18.265Z,78.40
2022-08-02T12:25:46.844Z,78.50
2022-08-02T12:28:22.260Z,78.60
2022-08-02T12:30:58.119Z,76.80
2022-08-02T12:33:27.611Z,75.40
2022-08-02T12:35:56.364Z,76.30
2022-08-02T12:38:24.781Z,75.90
2022-08-02T12:40:53.314Z,74.00
2022-08-02T12:43:24.357Z,74.60
2022-08-02T12:45:57.498Z,75.50
2022-08-02T12:48:37.369Z,76.20
2022-08-02T12:51:23.784Z,76.90
2022-08-02T12:53:59.906Z,76.70
2022-08-02T12:56:30.593Z,76.30
2022-08-02T12:58:59.583Z,76.20
2022-08-02T13:01:30.524Z,76.40
2022-08-02T13:04:11.737Z,76.50
2022-08-02T13:06:45.540Z,76.20
2022-08-02T13:09:29.235Z,76.00
2022-08-02T13:11:59.676Z,75.60
2022-08-02T13:14:28.073Z,75.60
2022-08-02T13:16:57.824Z,76.00
2022-08-02T13:19:26.266Z,76.40
2022-08-02T13:22:01.271Z,76.60
2022-08-02T13:24:37.861Z,76.80
2022-08-02T13:27:10.087Z,76.70
2022-08-02T13:29:38.808Z,76.80
2022-08-02T13:32:08.779Z,76.60
2022-08-02T13:34:37.784Z,76.40
2022-08-02T13:37:06.377Z,76.70
2022-08-02T13:39:34.785Z,76.90
2022-08-02T13:42:03.247Z,77.00
2022-08-02T13:44:31.750Z,77.70
2022-08-02T13:47:00.304Z,78.60
2022-08-02T13:49:51.349Z,79.10
2022-08-02T13:52:18.716Z,78.10
2022-08-02T13:54:47.237Z,77.70
2022-08-02T13:57:15.735Z,78.00
2022-08-02T13:59:57.506Z,78.20
2022-08-02T14:02:28.373Z,77.50
2022-08-02T14:04:58.354Z,75.70
2022-08-02T14:07:26.761Z,75.60
2022-08-02T14:09:55.202Z,75.20
2022-08-02T14:12:29.495Z,75.00
2022-08-02T14:14:57.868Z,75.10
2022-08-02T14:17:26.306Z,75.40
2022-08-02T14:19:54.753Z,75.80
2022-08-02T14:22:24.745Z,75.70
2022-08-02T14:27:46.030Z,75.00
2022-08-02T14:34:31.639Z,75.60
2022-08-02T14:40:31.235Z,74.60
2022-08-02T14:43:01.923Z,74.40
2022-08-02T14:45:40.072Z,74.40
2022-08-02T14:48:11.489Z,74.60
2022-08-02T14:50:40.003Z,75.00
2022-08-02T14:53:49.652Z,75.10
2022-08-02T14:56:28.874Z,75.20
2022-08-02T14:59:58.353Z,75.60
2022-08-02T15:02:40.585Z,75.60
2022-08-02T15:06:02.823Z,75.10
2022-08-02T15:08:55.994Z,73.50
2022-08-02T15:11:47.565Z,73.30
2022-08-02T15:14:45.230Z,73.30
2022-08-02T15:17:24.495Z,73.00
2022-08-02T15:20:25.544Z,73.10
2022-08-02T15:26:21.378Z,73.00
2022-08-02T15:31:22.360Z,72.60
2022-08-02T15:34:02.567Z,72.60
2022-08-02T15:36:31.033Z,72.80
2022-08-02T15:38:59.456Z,72.70
2022-08-02T15:41:27.884Z,72.70
2022-08-02T15:44:00.016Z,72.80
2022-08-02T15:46:37.034Z,72.70
2022-08-02T15:49:05.598Z,73.30
2022-08-02T15:51:34.107Z,72.70
2022-08-02T15:54:02.531Z,73.10
2022-08-02T15:56:31.054Z,73.60
2022-08-02T15:58:59.405Z,74.50
2022-08-02T16:01:37.274Z,77.20
2022-08-02T16:04:08.707Z,78.40
2022-08-02T16:06:37.759Z,79.30
2022-08-02T16:09:06.224Z,80.60
2022-08-02T16:11:34.667Z,81.30
2022-08-02T16:14:04.211Z,82.40
2022-08-02T16:16:34.826Z,82.60
2022-08-02T16:19:45.774Z,82.80
2022-08-02T16:21:56.387Z,82.80
2022-08-02T16:24:25.213Z,82.60
2022-08-02T16:26:53.883Z,82.60
2022-08-02T16:29:22.330Z,82.70
2022-08-02T16:31:50.847Z,82.70
2022-08-02T16:34:19.762Z,82.70
2022-08-02T16:36:48.423Z,82.60
2022-08-02T16:39:18.231Z,82.80
2022-08-02T16:41:51.538Z,83.00
2022-08-02T16:44:29.570Z,83.00
2022-08-02T16:47:01.058Z,82.90
2022-08-02T16:50:05.152Z,82.80
2022-08-02T16:52:19.697Z,82.80
2022-08-02T16:54:50.291Z,83.10
2022-08-02T16:57:19.945Z,83.10
2022-08-02T16:59:57.837Z,83.10
2022-08-02T17:02:28.116Z,83.00
2022-08-02T17:04:56.930Z,83.10
2022-08-02T17:08:07.617Z,83.10
2022-08-02T17:10:15.257Z,83.10
2022-08-02T17:12:51.366Z,82.90
2022-08-02T17:16:07.606Z,82.60
2022-08-02T17:18:08.996Z,82.70
2022-08-02T17:20:37.818Z,82.80
2022-08-02T17:23:08.929Z,82.70
2022-08-02T17:25:52.429Z,82.60
2022-08-02T17:28:21.230Z,82.70
2022-08-02T17:31:00.542Z,82.60
2022-08-02T17:33:29.178Z,82.60
2022-08-02T17:36:00.432Z,82.60
2022-08-02T17:38:29.233Z,82.30
2022-08-02T17:41:00.744Z,82.40
2022-08-02T17:43:32.728Z,82.40
2022-08-02T17:46:02.467Z,82.30
2022-08-02T17:48:55.210Z,81.90
2022-08-02T17:52:15.786Z,81.80
2022-08-02T17:54:13.190Z,81.60
2022-08-02T17:56:43.345Z,81.70
2022-08-02T17:59:20.173Z,81.70
2022-08-02T18:01:52.830Z,81.40
2022-08-02T18:04:27.473Z,81.30
2022-08-02T18:06:59.058Z,81.20
2022-08-02T18:09:33.160Z,81.00
2022-08-02T18:12:04.414Z,80.90
2022-08-02T18:14:32.780Z,80.50
2022-08-02T18:17:03.429Z,80.30
2022-08-02T18:19:33.101Z,80.20
2022-08-02T18:22:11.030Z,80.20
2022-08-02T18:24:40.702Z,80.00
2022-08-02T18:27:10.587Z,80.00
2022-08-02T18:29:39.078Z,79.70
2022-08-02T18:32:11.737Z,79.80
2022-08-02T18:34:40.748Z,79.80
2022-08-02T18:37:17.664Z,79.70
2022-08-02T18:39:51.458Z,79.70
2022-08-02T18:42:21.920Z,80.00
2022-08-02T18:44:50.323Z,79.80
2022-08-02T18:47:18.788Z,79.90
2022-08-02T18:49:51.545Z,79.90
2022-08-02T18:52:31.531Z,79.60
2022-08-02T18:55:00.347Z,79.60
2022-08-02T19:00:20.593Z,79.80
2022-08-02T19:02:54.077Z,80.20
2022-08-02T19:05:53.088Z,80.20
2022-08-02T19:08:13.070Z,80.20
2022-08-02T19:10:49.348Z,80.00
2022-08-02T19:13:19.912Z,79.70
2022-08-02T19:15:49.328Z,80.00
2022-08-02T19:18:17.743Z,80.20
2022-08-02T19:20:48.047Z,80.50
2022-08-02T19:23:17.344Z,80.60
2022-08-02T19:25:50.255Z,80.50
2022-08-02T19:31:13.454Z,80.60
2022-08-02T19:34:06.266Z,80.90
2022-08-02T19:36:30.497Z,80.90
2022-08-02T19:39:02.792Z,80.70
2022-08-02T19:41:43.948Z,80.60
2022-08-02T19:44:25.616Z,80.40
2022-08-02T19:46:57.199Z,80.40
2022-08-02T19:49:39.283Z,80.30
2022-08-02T19:52:21.611Z,80.50
2022-08-02T19:54:54.338Z,80.80
2022-08-02T19:57:25.230Z,81.00
2022-08-02T19:59:55.420Z,81.10
2022-08-02T20:02:24.004Z,81.40
2022-08-02T20:04:53.176Z,81.10
2022-08-02T20:07:54.804Z,80.90
2022-08-02T20:10:13.562Z,80.90
2022-08-02T20:12:53.680Z,80.80
2022-08-02T20:15:51.883Z,80.80
2022-08-02T20:18:13.116Z,80.70
2022-08-02T20:20:44.353Z,80.60
2022-08-02T20:23:33.887Z,80.60
2022-08-02T20:26:03.126Z,80.50
2022-08-02T20:28:32.055Z,80.30
2022-08-02T20:31:07.168Z,80.30
2022-08-02T20:33:55.875Z,80.40
2022-08-02T20:36:25.003Z,80.50
2022-08-02T20:38:54.515Z,80.40
2022-08-02T20:41:23.134Z,80.50
2022-08-02T20:43:51.620Z,80.50
2022-08-02T20:46:21.387Z,80.40
2022-08-02T20:48:51.895Z,80.40
2022-08-02T20:51:19.677Z,80.60
2022-08-02T20:56:50.756Z,81.00
2022-08-02T20:59:21.127Z,81.20
2022-08-02T21:01:56.783Z,81.30
2022-08-02T21:04:25.444Z,81.50
2022-08-02T21:06:54.083Z,81.70
2022-08-02T21:09:33.070Z,81.80
2022-08-02T21:12:18.169Z,81.90
2022-08-02T21:14:50.240Z,82.20
2022-08-02T21:17:26.726Z,82.30
2022-08-02T21:20:00.132Z,82.30
2022-08-02T21:22:28.592Z,82.40
2022-08-02T21:24:57.102Z,82.70
2022-08-02T21:27:53.274Z,82.70
2022-08-02T21:30:14.680Z,82.90
2022-08-02T21:32:45.018Z,83.00
2022-08-02T21:35:15.050Z,83.00
2022-08-02T21:37:45.122Z,83.00
2022-08-02T21:40:15.459Z,83.20
2022-08-02T21:42:44.387Z,83.40
2022-08-02T21:45:17.280Z,83.50
2022-08-02T21:47:49.963Z,83.70
2022-08-02T21:50:19.369Z,84.20
2022-08-02T21:52:52.327Z,83.80
2022-08-02T21:55:24.367Z,83.70
2022-08-02T21:58:10.304Z,83.60
2022-08-02T22:00:39.058Z,83.40
2022-08-02T22:03:22.506Z,83.40
2022-08-02T22:05:51.762Z,83.30
2022-08-02T22:08:22.239Z,83.10
2022-08-02T22:11:04.271Z,83.10
2022-08-02T22:13:47.217Z,83.10
2022-08-02T22:16:18.296Z,82.80
2022-08-02T22:18:54.430Z,82.70
2022-08-02T22:21:25.267Z,82.60
2022-08-02T22:24:02.117Z,82.50
2022-08-02T22:26:30.644Z,82.70
2022-08-02T22:28:59.628Z,82.60
2022-08-02T22:34:36.690Z,82.90
2022-08-02T22:37:07.240Z,83.10
2022-08-02T22:40:09.042Z,83.00
2022-08-02T22:42:40.061Z,82.80
2022-08-02T22:45:10.226Z,82.50
2022-08-02T22:47:50.726Z,82.30
2022-08-02T22:50:21.609Z,82.10
2022-08-02T22:52:50.569Z,81.80
2022-08-02T22:58:04.818Z,81.60
2022-08-02T22:58:56.590Z,80.90
2022-08-02T22:58:58.363Z,79.50
2022-08-02T22:58:59.258Z,81.00
2022-08-02T23:00:33.765Z,81.60
2022-08-02T23:03:02.100Z,81.70
2022-08-02T23:05:32.979Z,81.60
2022-08-02T23:08:01.893Z,81.50
2022-08-02T23:10:30.414Z,81.50
2022-08-02T23:12:59.513Z,81.60
2022-08-02T23:15:28.056Z,81.60
2022-08-02T23:18:14.004Z,81.40
2022-08-02T23:20:43.901Z,81.00
2022-08-02T23:23:12.425Z,80.60
2022-08-02T23:25:41.004Z,80.30
2022-08-02T23:28:09.446Z,79.70
2022-08-02T23:30:38.611Z,79.50
2022-08-02T23:33:07.026Z,79.40
2022-08-02T23:35:35.352Z,79.50
2022-08-02T23:38:05.147Z,79.50
2022-08-02T23:40:40.689Z,79.70
2022-08-02T23:43:13.690Z,79.90
2022-08-02T23:45:45.109Z,80.00
2022-08-02T23:48:13.722Z,80.10
2022-08-02T23:50:42.256Z,80.30
2022-08-02T23:53:12.074Z,80.00
2022-08-02T23:55:40.549Z,79.70
2022-08-02T23:58:08.927Z,79.70
